createdAt,value
2019-03-21T00:00:32.514Z,0.00
2019-03-21T00:01:32.503Z,0.00
2019-03-21T00:02:32.509Z,0.00
2019-03-21T00:03:32.485Z,0.00
2019-03-21T00:04:32.495Z,0.00
2019-03-21T00:05:32.464Z,0.00
2019-03-21T00:06:32.446Z,0.00
2019-03-21T00:07:33.001Z,0.00
2019-03-21T00:08:32.435Z,0.00
2019-03-21T00:09:32.413Z,0.00
2019-03-21T00:10:32.426Z,0.00
2019-03-21T00:11:32.390Z,0.00
2019-03-21T00:12:32.386Z,0.00
2019-03-21T00:13:32.397Z,0.00
2019-03-21T00:14:32.352Z,0.00
2019-03-21T00:15:32.346Z,0.00
2019-03-21T00:16:32.340Z,0.00
2019-03-21T00:17:32.321Z,0.00
2019-03-21T00:18:32.312Z,0.00
2019-03-21T00:19:32.321Z,0.00
2019-03-21T00:20:32.291Z,0.00
2019-03-21T00:21:32.300Z,0.00
2019-03-21T00:22:32.265Z,0.00
2019-03-21T00:23:32.256Z,0.00
2019-03-21T00:24:32.244Z,0.00
2019-03-21T00:25:32.245Z,0.00
2019-03-21T00:26:32.221Z,0.00
2019-03-21T00:27:32.241Z,0.00
2019-03-21T00:28:32.197Z,0.00
2019-03-21T00:29:32.186Z,0.00
2019-03-21T00:30:32.179Z,0.00
2019-03-21T00:31:32.186Z,0.00
2019-03-21T00:32:32.145Z,0.00
2019-03-21T00:33:32.176Z,0.00
2019-03-21T00:34:32.126Z,0.00
2019-03-21T00:35:32.119Z,0.00
2019-03-21T00:36:32.111Z,0.00
2019-03-21T00:37:32.109Z,0.00
2019-03-21T00:38:32.098Z,0.00
2019-03-21T00:39:32.976Z,0.00
2019-03-21T00:40:32.062Z,0.00
2019-03-21T00:41:32.054Z,0.00
2019-03-21T00:42:32.040Z,0.00
2019-03-21T00:43:32.060Z,0.00
2019-03-21T00:44:32.020Z,0.00
2019-03-21T00:45:32.039Z,0.00
2019-03-21T00:46:31.995Z,0.00
2019-03-21T00:47:31.992Z,0.00
2019-03-21T00:48:31.965Z,0.00
2019-03-21T00:49:31.982Z,0.00
2019-03-21T00:50:31.947Z,0.00
2019-03-21T00:51:31.976Z,0.00
2019-03-21T00:52:31.957Z,0.00
2019-03-21T00:53:31.913Z,0.00
2019-03-21T00:54:31.910Z,0.00
2019-03-21T00:55:31.917Z,0.00
2019-03-21T00:56:31.886Z,0.00
2019-03-21T00:57:31.900Z,0.00
2019-03-21T00:58:31.857Z,0.00
2019-03-21T00:59:31.842Z,0.00
2019-03-21T01:00:31.837Z,0.00
2019-03-21T01:01:31.850Z,0.00
2019-03-21T01:02:31.813Z,0.00
2019-03-21T01:03:31.833Z,0.00
2019-03-21T01:04:31.796Z,0.00
2019-03-21T01:05:31.784Z,0.00
2019-03-21T01:06:31.772Z,0.00
2019-03-21T01:07:31.791Z,0.00
2019-03-21T01:08:31.751Z,0.00
2019-03-21T01:09:31.785Z,0.00
2019-03-21T01:10:31.728Z,0.00
2019-03-21T01:11:31.714Z,0.00
2019-03-21T01:12:31.704Z,0.00
2019-03-21T01:13:31.720Z,0.00
2019-03-21T01:14:31.685Z,0.00
2019-03-21T01:15:31.688Z,0.00
2019-03-21T01:16:31.663Z,0.00
2019-03-21T01:17:31.652Z,0.00
2019-03-21T01:18:31.642Z,0.00
2019-03-21T01:19:33.371Z,0.00
2019-03-21T01:20:31.615Z,0.00
2019-03-21T01:21:31.615Z,0.00
2019-03-21T01:22:31.640Z,0.00
2019-03-21T01:23:31.590Z,0.00
2019-03-21T01:24:31.573Z,0.00
2019-03-21T01:25:31.575Z,0.00
2019-03-21T01:26:31.580Z,0.00
2019-03-21T01:27:31.544Z,0.00
2019-03-21T01:28:31.522Z,0.00
2019-03-21T01:29:31.518Z,0.00
2019-03-21T01:30:31.497Z,0.00
2019-03-21T01:31:31.513Z,0.00
2019-03-21T01:32:31.508Z,0.00
2019-03-21T01:33:31.472Z,0.00
2019-03-21T01:34:31.457Z,0.00
2019-03-21T01:35:31.448Z,0.00
2019-03-21T01:36:31.429Z,0.00
2019-03-21T01:37:31.447Z,0.00
2019-03-21T01:38:31.545Z,0.00
2019-03-21T01:39:31.404Z,0.00
2019-03-21T01:40:31.394Z,0.00
2019-03-21T01:41:31.380Z,0.00
2019-03-21T01:42:31.371Z,0.00
2019-03-21T01:43:31.378Z,0.00
2019-03-21T01:44:40.544Z,0.00
2019-03-21T01:45:32.334Z,0.00
2019-03-21T01:46:31.325Z,0.00
2019-03-21T01:47:31.317Z,0.00
2019-03-21T01:48:31.299Z,0.00
2019-03-21T01:49:31.308Z,0.00
2019-03-21T01:50:31.312Z,0.00
2019-03-21T01:51:31.264Z,0.00
2019-03-21T01:52:31.253Z,0.00
2019-03-21T01:53:31.242Z,0.00
2019-03-21T01:54:31.227Z,0.00
2019-03-21T01:55:31.247Z,0.00
2019-03-21T01:56:31.230Z,0.00
2019-03-21T01:57:31.197Z,0.00
2019-03-21T01:58:31.186Z,0.00
2019-03-21T01:59:31.174Z,0.00
2019-03-21T02:00:31.166Z,0.00
2019-03-21T02:01:31.178Z,0.00
2019-03-21T02:02:31.205Z,0.00
2019-03-21T02:03:31.139Z,0.00
2019-03-21T02:04:31.119Z,0.00
2019-03-21T02:05:31.107Z,0.00
2019-03-21T02:06:31.100Z,0.00
2019-03-21T02:07:31.123Z,0.00
2019-03-21T02:08:31.102Z,0.00
2019-03-21T02:09:31.067Z,0.00
2019-03-21T02:10:31.061Z,0.00
2019-03-21T02:11:31.048Z,0.00
2019-03-21T02:12:31.035Z,0.00
2019-03-21T02:13:31.039Z,0.00
2019-03-21T02:14:31.036Z,0.00
2019-03-21T02:15:30.997Z,0.00
2019-03-21T02:16:30.986Z,0.00
2019-03-21T02:17:31.493Z,0.00
2019-03-21T02:18:30.967Z,0.00
2019-03-21T02:19:30.995Z,0.00
2019-03-21T02:20:30.999Z,0.00
2019-03-21T02:21:30.942Z,0.00
2019-03-21T02:22:30.920Z,0.00
2019-03-21T02:23:30.911Z,0.00
2019-03-21T02:24:30.902Z,0.00
2019-03-21T02:25:30.910Z,0.00
2019-03-21T02:26:30.918Z,0.00
2019-03-21T02:27:30.873Z,0.00
2019-03-21T02:28:30.860Z,0.00
2019-03-21T02:29:30.842Z,0.00
2019-03-21T02:30:30.830Z,0.00
2019-03-21T02:31:30.835Z,0.00
2019-03-21T02:32:30.823Z,0.00
2019-03-21T02:33:30.801Z,0.00
2019-03-21T02:34:30.789Z,0.00
2019-03-21T02:35:31.083Z,0.00
2019-03-21T02:36:30.760Z,0.00
2019-03-21T02:37:30.837Z,0.00
2019-03-21T02:38:30.747Z,0.00
2019-03-21T02:39:30.729Z,0.00
2019-03-21T02:40:30.731Z,0.00
2019-03-21T02:41:30.706Z,0.00
2019-03-21T02:42:30.697Z,0.00
2019-03-21T02:43:31.484Z,0.00
2019-03-21T02:44:30.676Z,0.00
2019-03-21T02:45:30.663Z,0.00
2019-03-21T02:46:30.650Z,0.00
2019-03-21T02:47:30.648Z,0.00
2019-03-21T02:48:30.637Z,0.00
2019-03-21T02:49:30.673Z,0.00
2019-03-21T02:50:30.614Z,0.00
2019-03-21T02:51:30.596Z,0.00
2019-03-21T02:52:30.581Z,0.00
2019-03-21T02:53:30.582Z,0.00
2019-03-21T02:54:30.564Z,0.00
2019-03-21T02:55:30.626Z,0.00
2019-03-21T02:56:30.540Z,0.00
2019-03-21T02:57:30.524Z,0.00
2019-03-21T02:58:30.518Z,0.00
2019-03-21T02:59:30.508Z,0.00
2019-03-21T03:00:30.507Z,0.00
2019-03-21T03:01:30.531Z,0.00
2019-03-21T03:02:30.468Z,0.00
2019-03-21T03:03:30.463Z,0.00
2019-03-21T03:04:30.536Z,0.00
2019-03-21T03:05:30.445Z,0.00
2019-03-21T03:06:30.429Z,0.00
2019-03-21T03:07:30.456Z,0.00
2019-03-21T03:08:30.414Z,0.00
2019-03-21T03:09:30.396Z,0.00
2019-03-21T03:10:30.384Z,0.00
2019-03-21T03:11:30.368Z,0.00
2019-03-21T03:12:30.359Z,0.00
2019-03-21T03:13:30.420Z,0.00
2019-03-21T03:14:30.340Z,0.00
2019-03-21T03:15:30.326Z,0.00
2019-03-21T03:16:30.312Z,0.00
2019-03-21T03:17:30.307Z,0.00
2019-03-21T03:18:30.287Z,0.00
2019-03-21T03:19:30.325Z,0.00
2019-03-21T03:20:30.272Z,0.00
2019-03-21T03:21:30.262Z,0.00
2019-03-21T03:22:30.256Z,0.00
2019-03-21T03:23:30.235Z,0.00
2019-03-21T03:24:30.230Z,0.00
2019-03-21T03:25:30.262Z,0.00
2019-03-21T03:26:30.209Z,0.00
2019-03-21T03:27:30.194Z,0.00
2019-03-21T03:28:30.183Z,0.00
2019-03-21T03:29:30.168Z,0.00
2019-03-21T03:30:30.167Z,0.00
2019-03-21T03:31:30.205Z,0.00
2019-03-21T03:32:30.148Z,0.00
2019-03-21T03:33:30.123Z,0.00
2019-03-21T03:34:30.112Z,0.00
2019-03-21T03:35:30.106Z,0.00
2019-03-21T03:36:30.096Z,0.00
2019-03-21T03:37:30.121Z,0.00
2019-03-21T03:38:30.081Z,0.00
2019-03-21T03:39:30.059Z,0.00
2019-03-21T03:40:30.049Z,0.00
2019-03-21T03:41:30.036Z,0.00
2019-03-21T03:42:30.057Z,0.00
2019-03-21T03:43:30.020Z,0.00
2019-03-21T03:44:30.008Z,0.00
2019-03-21T03:45:37.340Z,0.00
2019-03-21T03:46:30.981Z,0.00
2019-03-21T03:47:29.967Z,0.00
2019-03-21T03:48:29.997Z,0.00
2019-03-21T03:49:29.993Z,0.00
2019-03-21T03:50:29.936Z,0.00
2019-03-21T03:51:29.931Z,0.00
2019-03-21T03:52:29.918Z,0.00
2019-03-21T03:53:29.905Z,0.00
2019-03-21T03:54:29.913Z,0.00
2019-03-21T03:55:29.896Z,0.00
2019-03-21T03:56:29.868Z,0.00
2019-03-21T03:57:29.856Z,0.00
2019-03-21T03:58:29.847Z,0.00
2019-03-21T03:59:29.842Z,0.00
2019-03-21T04:00:29.868Z,0.00
2019-03-21T04:01:39.358Z,0.00
2019-03-21T04:02:29.841Z,0.00
2019-03-21T04:03:29.816Z,0.00
2019-03-21T04:04:29.797Z,0.00
2019-03-21T04:05:29.805Z,0.00
2019-03-21T04:06:29.807Z,0.00
2019-03-21T04:07:29.774Z,0.00
2019-03-21T04:08:29.764Z,0.00
2019-03-21T04:09:29.731Z,0.00
2019-03-21T04:10:29.743Z,0.00
2019-03-21T04:11:29.712Z,0.00
2019-03-21T04:12:39.219Z,0.00
2019-03-21T04:13:29.699Z,0.00
2019-03-21T04:14:29.706Z,0.00
2019-03-21T04:15:29.671Z,0.00
2019-03-21T04:16:29.671Z,0.00
2019-03-21T04:17:30.626Z,0.00
2019-03-21T04:18:29.665Z,0.00
2019-03-21T04:19:29.646Z,0.00
2019-03-21T04:20:29.664Z,0.00
2019-03-21T04:21:29.625Z,0.00
2019-03-21T04:22:29.599Z,0.00
2019-03-21T04:23:29.585Z,0.00
2019-03-21T04:24:29.626Z,0.00
2019-03-21T04:25:29.559Z,0.00
2019-03-21T04:26:29.572Z,0.00
2019-03-21T04:27:29.573Z,0.00
2019-03-21T04:28:29.519Z,0.00
2019-03-21T04:29:29.582Z,0.00
2019-03-21T04:30:29.511Z,0.00
2019-03-21T04:31:29.515Z,0.00
2019-03-21T04:32:29.481Z,0.00
2019-03-21T04:33:29.485Z,0.00
2019-03-21T04:34:29.452Z,0.00
2019-03-21T04:35:29.440Z,0.00
2019-03-21T04:36:30.055Z,0.00
2019-03-21T04:37:29.446Z,0.00
2019-03-21T04:38:29.447Z,0.00
2019-03-21T04:39:29.396Z,0.00
2019-03-21T04:40:29.436Z,0.00
2019-03-21T04:41:29.517Z,0.00
2019-03-21T04:42:29.384Z,0.00
2019-03-21T04:43:29.388Z,0.00
2019-03-21T04:44:29.352Z,0.00
2019-03-21T04:45:29.326Z,0.00
2019-03-21T04:46:29.343Z,0.00
2019-03-21T04:47:29.341Z,0.00
2019-03-21T04:48:29.325Z,0.00
2019-03-21T04:49:29.285Z,0.00
2019-03-21T04:50:29.286Z,0.00
2019-03-21T04:51:29.298Z,0.00
2019-03-21T04:52:29.299Z,0.00
2019-03-21T04:53:29.317Z,0.00
2019-03-21T04:54:29.259Z,0.00
2019-03-21T04:55:29.218Z,0.00
2019-03-21T04:56:29.209Z,0.00
2019-03-21T04:57:29.194Z,0.00
2019-03-21T04:58:29.198Z,0.00
2019-03-21T04:59:29.244Z,0.00
2019-03-21T05:00:29.191Z,0.00
2019-03-21T05:01:29.153Z,0.00
2019-03-21T05:02:29.178Z,0.00
2019-03-21T05:03:29.124Z,0.00
2019-03-21T05:04:29.157Z,0.00
2019-03-21T05:05:29.134Z,0.00
2019-03-21T05:06:29.102Z,0.00
2019-03-21T05:07:29.133Z,0.00
2019-03-21T05:08:29.116Z,0.00
2019-03-21T05:09:29.089Z,0.00
2019-03-21T05:10:29.074Z,0.00
2019-03-21T05:11:29.050Z,0.00
2019-03-21T05:12:29.037Z,0.00
2019-03-21T05:13:29.038Z,0.00
2019-03-21T05:14:29.036Z,0.00
2019-03-21T05:15:29.000Z,0.00
2019-03-21T05:16:29.028Z,0.00
2019-03-21T05:17:29.017Z,0.00
2019-03-21T05:18:29.012Z,0.00
2019-03-21T05:19:28.957Z,0.00
2019-03-21T05:20:28.931Z,5.62
2019-03-21T05:21:28.926Z,5.62
2019-03-21T05:22:28.958Z,5.62
2019-03-21T05:23:29.023Z,5.62
2019-03-21T05:24:28.896Z,5.62
2019-03-21T05:25:28.881Z,5.62
2019-03-21T05:26:28.870Z,5.62
2019-03-21T05:27:29.543Z,5.62
2019-03-21T05:28:28.885Z,5.62
2019-03-21T05:29:28.884Z,5.62
2019-03-21T05:30:28.825Z,5.62
2019-03-21T05:31:28.823Z,5.62
2019-03-21T05:32:28.811Z,5.62
2019-03-21T05:33:28.799Z,11.25
2019-03-21T05:34:28.785Z,11.25
2019-03-21T05:35:28.907Z,11.25
2019-03-21T05:36:28.749Z,11.25
2019-03-21T05:37:28.756Z,11.25
2019-03-21T05:38:28.735Z,11.25
2019-03-21T05:39:28.734Z,11.25
2019-03-21T05:40:28.767Z,11.25
2019-03-21T05:41:28.748Z,11.25
2019-03-21T05:42:28.724Z,11.25
2019-03-21T05:43:29.543Z,11.25
2019-03-21T05:44:30.802Z,11.25
2019-03-21T05:45:28.711Z,11.25
2019-03-21T05:46:28.668Z,16.88
2019-03-21T05:47:28.669Z,16.88
2019-03-21T05:48:28.636Z,16.88
2019-03-21T05:49:28.612Z,16.88
2019-03-21T05:50:28.617Z,16.88
2019-03-21T05:51:28.645Z,16.88
2019-03-21T05:52:28.648Z,16.88
2019-03-21T05:53:28.610Z,16.88
2019-03-21T05:54:28.584Z,22.50
2019-03-21T05:55:28.553Z,22.50
2019-03-21T05:56:28.561Z,16.88
2019-03-21T05:57:28.536Z,16.88
2019-03-21T05:58:28.535Z,16.88
2019-03-21T05:59:28.532Z,16.88
2019-03-21T06:00:28.518Z,22.50
2019-03-21T06:01:28.518Z,22.50
2019-03-21T06:02:28.519Z,22.50
2019-03-21T06:03:28.493Z,22.50
2019-03-21T06:04:28.514Z,22.50
2019-03-21T06:05:28.478Z,22.50
2019-03-21T06:06:28.448Z,22.50
2019-03-21T06:07:28.424Z,22.50
2019-03-21T06:08:28.440Z,22.50
2019-03-21T06:09:28.411Z,22.50
2019-03-21T06:10:28.696Z,22.50
2019-03-21T06:11:28.394Z,22.50
2019-03-21T06:12:28.377Z,28.12
2019-03-21T06:13:28.416Z,28.12
2019-03-21T06:14:28.426Z,28.12
2019-03-21T06:15:28.408Z,28.12
2019-03-21T06:16:37.231Z,28.12
2019-03-21T06:17:29.334Z,28.12
2019-03-21T06:18:28.307Z,28.12
2019-03-21T06:19:28.284Z,33.75
2019-03-21T06:20:28.296Z,33.75
2019-03-21T06:21:28.275Z,33.75
2019-03-21T06:22:28.261Z,33.75
2019-03-21T06:23:28.251Z,39.38
2019-03-21T06:24:28.244Z,39.38
2019-03-21T06:25:28.261Z,39.38
2019-03-21T06:26:28.307Z,39.38
2019-03-21T06:27:28.221Z,39.38
2019-03-21T06:28:28.173Z,39.38
2019-03-21T06:29:28.149Z,39.38
2019-03-21T06:30:28.172Z,39.38
2019-03-21T06:31:28.123Z,39.38
2019-03-21T06:32:28.120Z,39.38
2019-03-21T06:33:28.150Z,39.38
2019-03-21T06:34:28.092Z,39.38
2019-03-21T06:35:28.084Z,39.38
2019-03-21T06:36:28.070Z,39.38
2019-03-21T06:37:28.969Z,39.38
2019-03-21T06:38:28.062Z,39.38
2019-03-21T06:39:28.047Z,39.38
2019-03-21T06:40:28.022Z,39.38
2019-03-21T06:41:28.016Z,39.38
2019-03-21T06:42:28.005Z,45.00
2019-03-21T06:43:27.990Z,45.00
2019-03-21T06:44:28.054Z,56.25
2019-03-21T06:45:27.968Z,298.12
2019-03-21T06:46:27.960Z,821.25
2019-03-21T06:47:27.945Z,1361.25
2019-03-21T06:48:27.945Z,1440.00
2019-03-21T06:49:27.941Z,1552.50
2019-03-21T06:50:27.946Z,1591.88
2019-03-21T06:51:27.905Z,1591.88
2019-03-21T06:52:27.890Z,1575.00
2019-03-21T06:53:27.878Z,1575.00
2019-03-21T06:54:27.873Z,1620.00
2019-03-21T06:55:27.859Z,1591.88
2019-03-21T06:56:27.890Z,1501.88
2019-03-21T06:57:27.837Z,1361.25
2019-03-21T06:58:27.823Z,1366.88
2019-03-21T06:59:27.807Z,1333.12
2019-03-21T07:00:27.798Z,1462.50
2019-03-21T07:01:27.794Z,1648.12
2019-03-21T07:02:27.843Z,1653.75
2019-03-21T07:03:27.768Z,1648.12
2019-03-21T07:04:27.755Z,1631.25
2019-03-21T07:05:27.747Z,1710.00
2019-03-21T07:06:27.729Z,984.38
2019-03-21T07:07:27.725Z,230.62
2019-03-21T07:08:27.758Z,101.25
2019-03-21T07:09:29.209Z,78.75
2019-03-21T07:10:27.688Z,61.88
2019-03-21T07:11:27.670Z,56.25
2019-03-21T07:12:27.659Z,56.25
2019-03-21T07:13:27.657Z,61.88
2019-03-21T07:14:27.690Z,61.88
2019-03-21T07:15:27.622Z,56.25
2019-03-21T07:16:27.656Z,56.25
2019-03-21T07:17:27.639Z,56.25
2019-03-21T07:18:27.590Z,56.25
2019-03-21T07:19:27.579Z,56.25
2019-03-21T07:20:27.638Z,56.25
2019-03-21T07:21:27.557Z,56.25
2019-03-21T07:22:27.541Z,56.25
2019-03-21T07:23:27.534Z,56.25
2019-03-21T07:24:27.531Z,56.25
2019-03-21T07:25:27.536Z,50.62
2019-03-21T07:26:27.524Z,50.62
2019-03-21T07:27:27.487Z,50.62
2019-03-21T07:28:27.492Z,50.62
2019-03-21T07:29:27.467Z,50.62
2019-03-21T07:30:27.458Z,50.62
2019-03-21T07:31:27.476Z,50.62
2019-03-21T07:32:33.368Z,50.62
2019-03-21T07:33:28.418Z,50.62
2019-03-21T07:34:27.406Z,50.62
2019-03-21T07:35:27.399Z,50.62
2019-03-21T07:36:27.388Z,50.62
2019-03-21T07:37:27.406Z,50.62
2019-03-21T07:38:27.391Z,50.62
2019-03-21T07:39:28.755Z,50.62
2019-03-21T07:40:27.337Z,45.00
2019-03-21T07:41:27.323Z,45.00
2019-03-21T07:42:27.313Z,45.00
2019-03-21T07:43:27.322Z,45.00
2019-03-21T07:44:27.305Z,45.00
2019-03-21T07:45:27.271Z,45.00
2019-03-21T07:46:27.266Z,45.00
2019-03-21T07:47:27.245Z,45.00
2019-03-21T07:48:27.253Z,45.00
2019-03-21T07:49:27.254Z,45.00
2019-03-21T07:50:27.229Z,45.00
2019-03-21T07:51:27.210Z,45.00
2019-03-21T07:52:27.201Z,45.00
2019-03-21T07:53:27.183Z,45.00
2019-03-21T07:54:27.164Z,45.00
2019-03-21T07:55:27.229Z,45.00
2019-03-21T07:56:27.162Z,45.00
2019-03-21T07:57:27.144Z,45.00
2019-03-21T07:58:27.135Z,45.00
2019-03-21T07:59:27.119Z,45.00
2019-03-21T08:00:27.097Z,45.00
2019-03-21T08:01:27.141Z,45.00
2019-03-21T08:02:27.080Z,45.00
2019-03-21T08:03:27.069Z,45.00
2019-03-21T08:04:27.062Z,45.00
2019-03-21T08:05:27.043Z,45.00
2019-03-21T08:06:27.035Z,45.00
2019-03-21T08:07:27.966Z,45.00
2019-03-21T08:08:27.025Z,45.00
2019-03-21T08:09:27.018Z,45.00
2019-03-21T08:10:26.985Z,45.00
2019-03-21T08:11:26.981Z,45.00
2019-03-21T08:12:26.965Z,45.00
2019-03-21T08:13:27.032Z,45.00
2019-03-21T08:14:26.948Z,45.00
2019-03-21T08:15:26.934Z,45.00
2019-03-21T08:16:26.919Z,45.00
2019-03-21T08:17:26.912Z,45.00
2019-03-21T08:18:26.896Z,45.00
2019-03-21T08:19:26.991Z,45.00
2019-03-21T08:20:26.872Z,45.00
2019-03-21T08:21:26.859Z,45.00
2019-03-21T08:22:26.846Z,45.00
2019-03-21T08:23:26.840Z,45.00
2019-03-21T08:24:26.827Z,45.00
2019-03-21T08:25:26.887Z,45.00
2019-03-21T08:26:26.822Z,45.00
2019-03-21T08:27:27.561Z,45.00
2019-03-21T08:28:26.790Z,45.00
2019-03-21T08:29:26.775Z,45.00
2019-03-21T08:30:26.754Z,45.00
2019-03-21T08:31:26.815Z,45.00
2019-03-21T08:32:26.747Z,45.00
2019-03-21T08:33:26.732Z,45.00
2019-03-21T08:34:26.726Z,45.00
2019-03-21T08:35:26.698Z,45.00
2019-03-21T08:36:26.687Z,45.00
2019-03-21T08:37:26.754Z,45.00
2019-03-21T08:38:26.663Z,45.00
2019-03-21T08:39:26.657Z,45.00
2019-03-21T08:40:26.652Z,45.00
2019-03-21T08:41:26.637Z,45.00
2019-03-21T08:42:26.620Z,45.00
2019-03-21T08:43:26.670Z,45.00
2019-03-21T08:44:26.611Z,45.00
2019-03-21T08:45:26.587Z,45.00
2019-03-21T08:46:26.583Z,45.00
2019-03-21T08:47:26.558Z,45.00
2019-03-21T08:48:26.553Z,45.00
2019-03-21T08:49:26.580Z,45.00
2019-03-21T08:50:26.525Z,45.00
2019-03-21T08:51:26.512Z,45.00
2019-03-21T08:52:26.501Z,45.00
2019-03-21T08:53:26.488Z,45.00
2019-03-21T08:54:26.504Z,45.00
2019-03-21T08:55:26.491Z,50.62
2019-03-21T08:56:26.458Z,50.62
2019-03-21T08:57:26.441Z,50.62
2019-03-21T08:58:27.065Z,50.62
2019-03-21T08:59:26.428Z,50.62
2019-03-21T09:00:34.040Z,50.62
2019-03-21T09:01:27.401Z,50.62
2019-03-21T09:02:26.389Z,50.62
2019-03-21T09:03:26.385Z,50.62
2019-03-21T09:04:26.368Z,50.62
2019-03-21T09:05:26.362Z,50.62
2019-03-21T09:06:26.384Z,50.62
2019-03-21T09:07:26.329Z,50.62
2019-03-21T09:08:26.318Z,50.62
2019-03-21T09:09:26.307Z,50.62
2019-03-21T09:10:26.295Z,50.62
2019-03-21T09:11:26.288Z,50.62
2019-03-21T09:12:26.301Z,50.62
2019-03-21T09:13:26.255Z,50.62
2019-03-21T09:14:27.053Z,50.62
2019-03-21T09:15:26.237Z,50.62
2019-03-21T09:16:26.230Z,50.62
2019-03-21T09:17:26.240Z,50.62
2019-03-21T09:18:26.268Z,50.62
2019-03-21T09:19:26.191Z,50.62
2019-03-21T09:20:26.180Z,50.62
2019-03-21T09:21:26.168Z,50.62
2019-03-21T09:22:27.510Z,50.62
2019-03-21T09:23:26.168Z,50.62
2019-03-21T09:24:26.186Z,50.62
2019-03-21T09:25:26.123Z,50.62
2019-03-21T09:26:26.110Z,50.62
2019-03-21T09:27:26.102Z,50.62
2019-03-21T09:28:26.089Z,50.62
2019-03-21T09:29:26.097Z,50.62
2019-03-21T09:30:26.098Z,50.62
2019-03-21T09:31:26.062Z,50.62
2019-03-21T09:32:26.101Z,50.62
2019-03-21T09:33:26.044Z,50.62
2019-03-21T09:34:26.022Z,50.62
2019-03-21T09:35:26.050Z,50.62
2019-03-21T09:36:26.025Z,50.62
2019-03-21T09:37:25.988Z,50.62
2019-03-21T09:38:25.983Z,50.62
2019-03-21T09:39:25.967Z,50.62
2019-03-21T09:40:25.956Z,50.62
2019-03-21T09:41:25.975Z,50.62
2019-03-21T09:42:25.964Z,50.62
2019-03-21T09:43:25.921Z,50.62
2019-03-21T09:44:25.919Z,50.62
2019-03-21T09:45:25.897Z,50.62
2019-03-21T09:46:25.892Z,50.62
2019-03-21T09:47:25.896Z,50.62
2019-03-21T09:48:25.901Z,50.62
2019-03-21T09:49:25.858Z,50.62
2019-03-21T09:50:25.852Z,50.62
2019-03-21T09:51:30.869Z,50.62
2019-03-21T09:52:26.827Z,50.62
2019-03-21T09:53:25.837Z,50.62
2019-03-21T09:54:25.816Z,50.62
2019-03-21T09:55:25.796Z,50.62
2019-03-21T09:56:25.778Z,50.62
2019-03-21T09:57:25.774Z,50.62
2019-03-21T09:58:25.753Z,50.62
2019-03-21T09:59:25.831Z,50.62
2019-03-21T10:00:25.741Z,50.62
2019-03-21T10:01:25.723Z,50.62
2019-03-21T10:02:25.716Z,50.62
2019-03-21T10:03:25.702Z,50.62
2019-03-21T10:04:25.689Z,50.62
2019-03-21T10:05:25.723Z,50.62
2019-03-21T10:06:25.665Z,50.62
2019-03-21T10:07:25.663Z,50.62
2019-03-21T10:08:25.645Z,50.62
2019-03-21T10:09:25.637Z,50.62
2019-03-21T10:10:26.559Z,50.62
2019-03-21T10:11:25.633Z,50.62
2019-03-21T10:12:25.598Z,50.62
2019-03-21T10:13:25.598Z,50.62
2019-03-21T10:14:25.577Z,45.00
2019-03-21T10:15:25.567Z,45.00
2019-03-21T10:16:25.575Z,45.00
2019-03-21T10:17:25.591Z,50.62
2019-03-21T10:18:25.534Z,50.62
2019-03-21T10:19:25.521Z,50.62
2019-03-21T10:20:25.518Z,50.62
2019-03-21T10:21:25.501Z,50.62
2019-03-21T10:22:25.556Z,50.62
2019-03-21T10:23:25.494Z,50.62
2019-03-21T10:24:25.473Z,50.62
2019-03-21T10:25:26.897Z,50.62
2019-03-21T10:26:25.448Z,50.62
2019-03-21T10:27:25.434Z,50.62
2019-03-21T10:28:25.431Z,50.62
2019-03-21T10:29:25.460Z,50.62
2019-03-21T10:30:25.403Z,50.62
2019-03-21T10:31:25.390Z,50.62
2019-03-21T10:32:25.387Z,50.62
2019-03-21T10:33:25.364Z,50.62
2019-03-21T10:34:25.361Z,50.62
2019-03-21T10:35:25.390Z,50.62
2019-03-21T10:36:25.341Z,50.62
2019-03-21T10:37:25.325Z,50.62
2019-03-21T10:38:25.341Z,50.62
2019-03-21T10:39:25.292Z,50.62
2019-03-21T10:40:25.281Z,50.62
2019-03-21T10:41:25.296Z,50.62
2019-03-21T10:42:25.263Z,50.62
2019-03-21T10:43:25.269Z,50.62
2019-03-21T10:44:25.243Z,50.62
2019-03-21T10:45:25.226Z,50.62
2019-03-21T10:46:25.214Z,50.62
2019-03-21T10:47:25.227Z,50.62
2019-03-21T10:48:25.193Z,50.62
2019-03-21T10:49:25.190Z,50.62
2019-03-21T10:50:25.169Z,50.62
2019-03-21T10:51:25.152Z,50.62
2019-03-21T10:52:25.143Z,50.62
2019-03-21T10:53:25.161Z,50.62
2019-03-21T10:54:25.123Z,50.62
2019-03-21T10:55:25.111Z,50.62
2019-03-21T10:56:25.108Z,50.62
2019-03-21T10:57:25.091Z,50.62
2019-03-21T10:58:25.073Z,50.62
2019-03-21T10:59:25.069Z,50.62
2019-03-21T11:00:25.049Z,56.25
2019-03-21T11:01:25.045Z,56.25
2019-03-21T11:02:25.036Z,56.25
2019-03-21T11:03:25.017Z,56.25
2019-03-21T11:04:25.020Z,50.62
2019-03-21T11:05:24.995Z,50.62
2019-03-21T11:06:25.028Z,56.25
2019-03-21T11:07:24.972Z,56.25
2019-03-21T11:08:25.029Z,56.25
2019-03-21T11:09:24.960Z,56.25
2019-03-21T11:10:24.976Z,56.25
2019-03-21T11:11:24.919Z,56.25
2019-03-21T11:12:24.907Z,56.25
2019-03-21T11:13:24.897Z,56.25
2019-03-21T11:14:24.895Z,56.25
2019-03-21T11:15:24.883Z,56.25
2019-03-21T11:16:24.884Z,56.25
2019-03-21T11:17:24.851Z,56.25
2019-03-21T11:18:35.497Z,56.25
2019-03-21T11:19:25.839Z,56.25
2019-03-21T11:20:24.809Z,56.25
2019-03-21T11:21:24.807Z,56.25
2019-03-21T11:22:24.820Z,56.25
2019-03-21T11:23:24.779Z,61.88
2019-03-21T11:24:24.768Z,61.88
2019-03-21T11:25:24.759Z,61.88
2019-03-21T11:26:24.745Z,61.88
2019-03-21T11:27:24.730Z,61.88
2019-03-21T11:28:24.777Z,61.88
2019-03-21T11:29:24.719Z,61.88
2019-03-21T11:30:24.697Z,61.88
2019-03-21T11:31:24.684Z,61.88
2019-03-21T11:32:24.678Z,61.88
2019-03-21T11:33:24.671Z,61.88
2019-03-21T11:34:24.687Z,61.88
2019-03-21T11:35:24.658Z,61.88
2019-03-21T11:36:24.630Z,67.50
2019-03-21T11:37:24.625Z,67.50
2019-03-21T11:38:24.609Z,67.50
2019-03-21T11:39:24.596Z,67.50
2019-03-21T11:40:24.605Z,67.50
2019-03-21T11:41:24.589Z,67.50
2019-03-21T11:42:26.568Z,67.50
2019-03-21T11:43:24.554Z,67.50
2019-03-21T11:44:24.544Z,67.50
2019-03-21T11:45:24.600Z,73.12
2019-03-21T11:46:24.565Z,73.12
2019-03-21T11:47:24.510Z,73.12
2019-03-21T11:48:24.501Z,73.12
2019-03-21T11:49:24.505Z,73.12
2019-03-21T11:50:24.486Z,73.12
2019-03-21T11:51:25.092Z,73.12
2019-03-21T11:52:24.473Z,73.12
2019-03-21T11:53:24.448Z,73.12
2019-03-21T11:54:24.425Z,73.12
2019-03-21T11:55:24.417Z,73.12
2019-03-21T11:56:24.435Z,73.12
2019-03-21T11:57:24.395Z,73.12
2019-03-21T11:58:24.412Z,73.12
2019-03-21T11:59:24.371Z,78.75
2019-03-21T12:00:24.358Z,78.75
2019-03-21T12:01:24.353Z,78.75
2019-03-21T12:02:27.312Z,78.75
2019-03-21T12:03:24.563Z,78.75
2019-03-21T12:04:24.355Z,78.75
2019-03-21T12:05:24.300Z,78.75
2019-03-21T12:06:24.295Z,78.75
2019-03-21T12:07:24.289Z,84.38
2019-03-21T12:08:24.272Z,84.38
2019-03-21T12:09:24.260Z,84.38
2019-03-21T12:10:24.258Z,84.38
2019-03-21T12:11:24.241Z,84.38
2019-03-21T12:12:24.225Z,84.38
2019-03-21T12:13:24.210Z,84.38
2019-03-21T12:14:24.203Z,84.38
2019-03-21T12:15:24.218Z,84.38
2019-03-21T12:16:24.175Z,84.38
2019-03-21T12:17:24.167Z,90.00
2019-03-21T12:18:24.170Z,90.00
2019-03-21T12:19:24.149Z,90.00
2019-03-21T12:20:24.137Z,90.00
2019-03-21T12:21:24.167Z,90.00
2019-03-21T12:22:29.890Z,90.00
2019-03-21T12:23:24.100Z,90.00
2019-03-21T12:24:25.073Z,95.62
2019-03-21T12:25:24.079Z,95.62
2019-03-21T12:26:24.072Z,95.62
2019-03-21T12:27:24.081Z,95.62
2019-03-21T12:28:24.048Z,95.62
2019-03-21T12:29:24.039Z,95.62
2019-03-21T12:30:24.022Z,95.62
2019-03-21T12:31:24.008Z,95.62
2019-03-21T12:32:23.991Z,101.25
2019-03-21T12:33:24.002Z,101.25
2019-03-21T12:34:23.992Z,101.25
2019-03-21T12:35:23.958Z,101.25
2019-03-21T12:36:23.947Z,101.25
2019-03-21T12:37:23.933Z,101.25
2019-03-21T12:38:23.930Z,101.25
2019-03-21T12:39:23.966Z,101.25
2019-03-21T12:40:23.910Z,106.88
2019-03-21T12:41:23.890Z,106.88
2019-03-21T12:42:23.883Z,106.88
2019-03-21T12:43:23.868Z,106.88
2019-03-21T12:44:23.864Z,106.88
2019-03-21T12:45:23.863Z,106.88
2019-03-21T12:46:23.842Z,106.88
2019-03-21T12:47:31.052Z,106.88
2019-03-21T12:48:24.811Z,106.88
2019-03-21T12:49:23.842Z,112.50
2019-03-21T12:50:23.809Z,112.50
2019-03-21T12:51:23.821Z,112.50
2019-03-21T12:52:23.782Z,112.50
2019-03-21T12:53:23.769Z,112.50
2019-03-21T12:54:23.779Z,112.50
2019-03-21T12:55:23.741Z,112.50
2019-03-21T12:56:23.750Z,112.50
2019-03-21T12:57:23.778Z,112.50
2019-03-21T12:58:23.723Z,118.12
2019-03-21T12:59:23.734Z,118.12
2019-03-21T13:00:23.701Z,118.12
2019-03-21T13:01:23.710Z,118.12